Darstellungsparameter: Aktuell verwendete Einstellungen:
Skalierung der Graphiken ... ?
xyx+y,   Skalierungsfaktor:      Skalierung: Modus: x, Faktor: 1
Darstellungszeitraum ... ?
Vom - - bis: - -   Zeitraum: 14.03.2021 - 14.03.2021
Min/Max/Avg-Anzeige ... ?
Zeige MMA aktuell
Zeige MMA Monat
Zeige MMA alles
Zeige --A aktuell
Zeige --A Monat
Zeige --A alles
Keine MMA-Anzeige
MMA:
Keine MMA-Graphiken
MMA-Basis: 14.03.2021 - 14.03.2021
Quicknavigation für Darstellung... ?
Tage:      1T, 2T, 3T, 5T -1T -2T -3T -5T +1T +2T +3T +5T
Wochen: 1W, 2W, 3W -1W -2W -3W +1W +2W +3W
Monate: 1M, 3M, 6M -1M -3M -6M +1M +3M +6M
Jahre:    1J, 3J, 5J, 10J -1J -3J -5J -10J +1J +3J +5J +10J
Nutze für die Darstellung ... ?
Originaldaten oder Mittelwerte auf ...
Stundenbasis Tagesbasis Wochenbasis
Monatsbasis Jahresbasis      Datenbasis: Original-Daten
Darstellen als:
Statistik (Auto) Statistik J:M      Darstellung:
Zur Graphik,    zurück zur Übersicht aller Sensoren.
 
Tabellarische Datenbersicht: ?
 
Sensor: Nr:Datum:Temp:Feuchte:Taupunkt:
Aussen-T/F 1 14-03-2021 00:00:00 5 C 84 % 2.53 C
2 14-03-2021 00:05:00 4.9 C 85 % 2.6 C
3 14-03-2021 00:10:00 4.8 C 85 % 2.5 C
4 14-03-2021 00:15:00 4.7 C 85 % 2.4 C
5 14-03-2021 00:20:00 4.7 C 85 % 2.4 C
6 14-03-2021 00:25:00 4.6 C 85 % 2.3 C
7 14-03-2021 00:30:00 4.6 C 85 % 2.3 C
8 14-03-2021 00:35:00 4.6 C 86 % 2.47 C
9 14-03-2021 00:40:00 4.8 C 85 % 2.5 C
10 14-03-2021 00:45:00 4.9 C 85 % 2.6 C
11 14-03-2021 00:50:00 5.1 C 84 % 2.63 C
12 14-03-2021 00:55:00 5.1 C 84 % 2.63 C
13 14-03-2021 01:00:00 5.1 C 84 % 2.63 C
14 14-03-2021 01:05:00 5 C 84 % 2.53 C
15 14-03-2021 01:10:00 4.9 C 85 % 2.6 C
16 14-03-2021 01:15:00 4.8 C 86 % 2.66 C
17 14-03-2021 01:20:00 4.6 C 86 % 2.47 C
18 14-03-2021 01:25:00 4.3 C 87 % 2.33 C
19 14-03-2021 01:30:00 4.2 C 88 % 2.39 C
20 14-03-2021 01:35:00 4.1 C 88 % 2.3 C
21 14-03-2021 01:40:00 4 C 89 % 2.36 C
22 14-03-2021 01:45:00 3.9 C 89 % 2.26 C
23 14-03-2021 01:50:00 4 C 91 % 2.67 C
24 14-03-2021 01:55:00 4 C 91 % 2.67 C
25 14-03-2021 02:00:00 4 C 92 % 2.82 C
Sensor: Nr:Datum:Temp:Feuchte:Taupunkt:
Aussen-T/F 26 14-03-2021 02:05:00 4.1 C 92 % 2.92 C
27 14-03-2021 02:10:00 4.1 C 92 % 2.92 C
28 14-03-2021 02:15:00 4 C 92 % 2.82 C
29 14-03-2021 02:20:00 4 C 92 % 2.82 C
30 14-03-2021 02:25:00 3.9 C 92 % 2.72 C
31 14-03-2021 02:30:00 3.9 C 92 % 2.72 C
32 14-03-2021 02:35:00 3.8 C 92 % 2.62 C
33 14-03-2021 02:40:00 3.8 C 92 % 2.62 C
34 14-03-2021 02:45:00 3.8 C 92 % 2.62 C
35 14-03-2021 02:50:00 3.8 C 92 % 2.62 C
36 14-03-2021 02:55:00 3.8 C 92 % 2.62 C
37 14-03-2021 03:00:00 3.8 C 92 % 2.62 C
38 14-03-2021 03:05:00 3.8 C 93 % 2.77 C
39 14-03-2021 03:10:00 3.8 C 93 % 2.77 C
40 14-03-2021 03:15:00 3.8 C 93 % 2.77 C
41 14-03-2021 03:20:00 3.8 C 93 % 2.77 C
42 14-03-2021 03:25:00 3.8 C 93 % 2.77 C
43 14-03-2021 03:30:00 3.8 C 93 % 2.77 C
44 14-03-2021 03:35:00 3.8 C 93 % 2.77 C
45 14-03-2021 03:40:00 3.8 C 93 % 2.77 C
46 14-03-2021 03:45:00 3.9 C 93 % 2.87 C
47 14-03-2021 03:50:00 3.8 C 92 % 2.62 C
48 14-03-2021 03:55:00 3.8 C 92 % 2.62 C
49 14-03-2021 04:00:00 3.8 C 92 % 2.62 C
50 14-03-2021 04:05:00 3.8 C 92 % 2.62 C
Sensor: Nr:Datum:Temp:Feuchte:Taupunkt:
Aussen-T/F 51 14-03-2021 04:10:00 3.7 C 92 % 2.52 C
52 14-03-2021 04:15:00 3.7 C 92 % 2.52 C
53 14-03-2021 04:20:00 3.7 C 92 % 2.52 C
54 14-03-2021 04:25:00 3.8 C 92 % 2.62 C
55 14-03-2021 04:30:00 3.8 C 91 % 2.47 C
56 14-03-2021 04:35:00 3.8 C 91 % 2.47 C
57 14-03-2021 04:40:00 3.7 C 91 % 2.37 C
58 14-03-2021 04:45:00 3.7 C 91 % 2.37 C
59 14-03-2021 04:50:00 3.7 C 91 % 2.37 C
60 14-03-2021 04:55:00 3.7 C 90 % 2.22 C
61 14-03-2021 05:00:00 3.7 C 91 % 2.37 C
62 14-03-2021 05:05:00 3.7 C 91 % 2.37 C
63 14-03-2021 05:10:00 3.7 C 91 % 2.37 C
64 14-03-2021 05:15:00 3.7 C 90 % 2.22 C
65 14-03-2021 05:20:00 3.6 C 90 % 2.12 C
66 14-03-2021 05:25:00 3.6 C 90 % 2.12 C
67 14-03-2021 05:30:00 3.5 C 90 % 2.02 C
68 14-03-2021 05:35:00 3.6 C 90 % 2.12 C
69 14-03-2021 05:40:00 3.6 C 90 % 2.12 C
70 14-03-2021 05:45:00 3.6 C 89 % 1.96 C
71 14-03-2021 05:50:00 3.6 C 89 % 1.96 C
72 14-03-2021 05:55:00 3.7 C 88 % 1.9 C
73 14-03-2021 06:00:00 3.7 C 88 % 1.9 C
74 14-03-2021 06:05:00 3.7 C 88 % 1.9 C
75 14-03-2021 06:10:00 3.7 C 88 % 1.9 C
Sensor: Nr:Datum:Temp:Feuchte:Taupunkt:
Aussen-T/F 76 14-03-2021 06:15:00 3.7 C 87 % 1.74 C
77 14-03-2021 06:20:00 3.7 C 87 % 1.74 C
78 14-03-2021 06:25:00 3.7 C 87 % 1.74 C
79 14-03-2021 06:30:00 3.6 C 88 % 1.8 C
80 14-03-2021 06:35:00 3.6 C 88 % 1.8 C
81 14-03-2021 06:40:00 3.6 C 87 % 1.64 C
82 14-03-2021 06:45:00 3.6 C 87 % 1.64 C
83 14-03-2021 06:50:00 3.7 C 86 % 1.58 C
84 14-03-2021 06:55:00 3.7 C 86 % 1.58 C
85 14-03-2021 07:00:00 3.8 C 86 % 1.68 C
86 14-03-2021 07:05:00 3.9 C 85 % 1.61 C
87 14-03-2021 07:10:00 3.9 C 85 % 1.61 C
88 14-03-2021 07:15:00 3.9 C 85 % 1.61 C
89 14-03-2021 07:20:00 3.9 C 86 % 1.78 C
90 14-03-2021 07:25:00 4 C 85 % 1.71 C
91 14-03-2021 07:30:00 4.1 C 85 % 1.81 C
92 14-03-2021 07:35:00 4.2 C 86 % 2.07 C
93 14-03-2021 07:40:00 4.2 C 86 % 2.07 C
94 14-03-2021 07:45:00 4.3 C 86 % 2.17 C
95 14-03-2021 07:50:00 4.4 C 86 % 2.27 C
96 14-03-2021 07:55:00 4.6 C 86 % 2.47 C
97 14-03-2021 08:00:00 4.7 C 85 % 2.4 C
98 14-03-2021 08:05:00 4.7 C 85 % 2.4 C
99 14-03-2021 08:10:00 4.8 C 85 % 2.5 C
100 14-03-2021 08:15:00 4.8 C 85 % 2.5 C
Sensor: Nr:Datum:Temp:Feuchte:Taupunkt:
Aussen-T/F 101 14-03-2021 08:20:00 4.8 C 85 % 2.5 C
102 14-03-2021 08:25:00 4.9 C 84 % 2.43 C
103 14-03-2021 08:30:00 4.9 C 84 % 2.43 C
104 14-03-2021 08:35:00 5 C 83 % 2.36 C
105 14-03-2021 08:40:00 5 C 83 % 2.36 C
106 14-03-2021 08:45:00 5.1 C 83 % 2.46 C
107 14-03-2021 08:50:00 5.1 C 82 % 2.29 C
108 14-03-2021 08:55:00 5.1 C 83 % 2.46 C
109 14-03-2021 09:00:00 5.1 C 82 % 2.29 C
110 14-03-2021 09:05:00 5.2 C 83 % 2.56 C
111 14-03-2021 09:10:00 5.2 C 83 % 2.56 C
112 14-03-2021 09:15:00 5.4 C 83 % 2.75 C
113 14-03-2021 09:20:00 5.6 C 83 % 2.95 C
114 14-03-2021 09:25:00 5.8 C 83 % 3.14 C
115 14-03-2021 09:30:00 5.9 C 82 % 3.07 C
116 14-03-2021 09:35:00 6.1 C 82 % 3.26 C
117 14-03-2021 09:40:00 6.2 C 82 % 3.36 C
118 14-03-2021 09:45:00 6.2 C 81 % 3.19 C
119 14-03-2021 09:50:00 6.1 C 81 % 3.09 C
120 14-03-2021 09:55:00 6.1 C 81 % 3.09 C
121 14-03-2021 10:00:00 6.1 C 81 % 3.09 C
122 14-03-2021 10:05:00 6.2 C 81 % 3.19 C
123 14-03-2021 10:10:00 6.2 C 81 % 3.19 C
124 14-03-2021 10:15:00 6.3 C 81 % 3.29 C
125 14-03-2021 10:20:00 6.3 C 81 % 3.29 C
Sensor: Nr:Datum:Temp:Feuchte:Taupunkt:
Aussen-T/F 126 14-03-2021 10:25:00 6.4 C 81 % 3.38 C
127 14-03-2021 10:30:00 6.4 C 81 % 3.38 C
128 14-03-2021 10:35:00 6.3 C 81 % 3.29 C
129 14-03-2021 10:40:00 6.3 C 81 % 3.29 C
130 14-03-2021 10:45:00 6.2 C 81 % 3.19 C
131 14-03-2021 10:50:00 6.2 C 82 % 3.36 C
132 14-03-2021 10:55:00 6.1 C 82 % 3.26 C
133 14-03-2021 11:00:00 6.2 C 82 % 3.36 C
134 14-03-2021 11:05:00 6.2 C 82 % 3.36 C
135 14-03-2021 11:10:00 6.1 C 82 % 3.26 C
136 14-03-2021 11:15:00 6.2 C 82 % 3.36 C
137 14-03-2021 11:20:00 6.2 C 82 % 3.36 C
138 14-03-2021 11:25:00 6.2 C 82 % 3.36 C
139 14-03-2021 11:30:00 6.3 C 83 % 3.63 C
140 14-03-2021 11:35:00 6.3 C 82 % 3.46 C
141 14-03-2021 11:40:00 6.4 C 82 % 3.56 C
142 14-03-2021 11:45:00 6.6 C 82 % 3.75 C
143 14-03-2021 11:50:00 6.8 C 81 % 3.77 C
144 14-03-2021 11:55:00 7.1 C 80 % 3.89 C
145 14-03-2021 12:00:00 7.2 C 80 % 3.99 C
146 14-03-2021 12:05:00 7.1 C 80 % 3.89 C
147 14-03-2021 12:10:00 7 C 80 % 3.79 C
148 14-03-2021 12:15:00 7 C 80 % 3.79 C
149 14-03-2021 12:20:00 7.1 C 80 % 3.89 C
150 14-03-2021 12:25:00 7.2 C 80 % 3.99 C
Sensor: Nr:Datum:Temp:Feuchte:Taupunkt:
Aussen-T/F 151 14-03-2021 12:30:00 7.1 C 80 % 3.89 C
152 14-03-2021 12:35:00 7.1 C 80 % 3.89 C
153 14-03-2021 12:40:00 7.1 C 80 % 3.89 C
154 14-03-2021 12:45:00 7.2 C 80 % 3.99 C
155 14-03-2021 12:50:00 7.2 C 79 % 3.81 C
156 14-03-2021 12:55:00 7.2 C 80 % 3.99 C
157 14-03-2021 13:00:00 7.2 C 80 % 3.99 C
158 14-03-2021 13:05:00 7.2 C 80 % 3.99 C
159 14-03-2021 13:10:00 7.2 C 80 % 3.99 C
160 14-03-2021 13:15:00 7.2 C 82 % 4.34 C
161 14-03-2021 13:20:00 7.2 C 82 % 4.34 C
162 14-03-2021 13:25:00 7.2 C 81 % 4.16 C
163 14-03-2021 13:30:00 7.3 C 81 % 4.26 C
164 14-03-2021 13:35:00 7.4 C 80 % 4.18 C
165 14-03-2021 13:40:00 7.5 C 81 % 4.46 C
166 14-03-2021 13:45:00 7.4 C 81 % 4.36 C
167 14-03-2021 13:50:00 7.4 C 81 % 4.36 C
168 14-03-2021 13:55:00 7.5 C 81 % 4.46 C
169 14-03-2021 14:00:00 7.6 C 81 % 4.55 C
170 14-03-2021 14:05:00 7.6 C 79 % 4.2 C
171 14-03-2021 14:10:00 7.6 C 79 % 4.2 C
172 14-03-2021 14:15:00 6.9 C 81 % 3.87 C
173 14-03-2021 14:20:00 6.4 C 84 % 3.9 C
174 14-03-2021 14:25:00 6.1 C 86 % 3.94 C
175 14-03-2021 14:30:00 6.1 C 87 % 4.1 C
Sensor: Nr:Datum:Temp:Feuchte:Taupunkt:
Aussen-T/F 176 14-03-2021 14:35:00 6.1 C 88 % 4.27 C
177 14-03-2021 14:40:00 6.2 C 89 % 4.53 C
178 14-03-2021 14:45:00 6.3 C 90 % 4.78 C
179 14-03-2021 14:50:00 6.5 C 91 % 5.14 C
180 14-03-2021 14:55:00 6.6 C 91 % 5.24 C
181 14-03-2021 15:00:00 6.7 C 91 % 5.34 C
182 14-03-2021 15:05:00 6.8 C 91 % 5.44 C
183 14-03-2021 15:10:00 6.9 C 92 % 5.69 C
184 14-03-2021 15:15:00 7.2 C 92 % 5.99 C
185 14-03-2021 15:20:00 7.3 C 92 % 6.09 C
186 14-03-2021 15:25:00 7.4 C 91 % 6.03 C
187 14-03-2021 15:30:00 7.5 C 90 % 5.97 C
188 14-03-2021 15:35:00 7.6 C 88 % 5.74 C
189 14-03-2021 15:40:00 7.6 C 88 % 5.74 C
190 14-03-2021 15:45:00 7.6 C 86 % 5.41 C
191 14-03-2021 15:50:00 7.6 C 84 % 5.07 C
192 14-03-2021 15:55:00 7.5 C 82 % 4.63 C
193 14-03-2021 16:00:00 7.6 C 81 % 4.55 C
194 14-03-2021 16:05:00 7.6 C 81 % 4.55 C
195 14-03-2021 16:10:00 7.6 C 80 % 4.38 C
196 14-03-2021 16:15:00 7.6 C 79 % 4.2 C
197 14-03-2021 16:20:00 7.1 C 81 % 4.07 C
198 14-03-2021 16:25:00 6.7 C 83 % 4.02 C
199 14-03-2021 16:30:00 6.4 C 85 % 4.07 C
200 14-03-2021 16:35:00 6.3 C 87 % 4.3 C
Sensor: Nr:Datum:Temp:Feuchte:Taupunkt:
Aussen-T/F 201 14-03-2021 16:40:00 6.6 C 89 % 4.92 C
202 14-03-2021 16:45:00 7.1 C 90 % 5.57 C
203 14-03-2021 16:50:00 7.6 C 90 % 6.07 C
204 14-03-2021 16:55:00 8.1 C 89 % 6.4 C
205 14-03-2021 17:00:00 8.3 C 87 % 6.27 C
206 14-03-2021 17:05:00 8.2 C 86 % 6 C
207 14-03-2021 17:10:00 8.3 C 87 % 6.27 C
208 14-03-2021 17:15:00 8.3 C 85 % 5.93 C
209 14-03-2021 17:20:00 8.3 C 85 % 5.93 C
210 14-03-2021 17:25:00 8.2 C 85 % 5.83 C
211 14-03-2021 17:30:00 7.8 C 85 % 5.44 C
212 14-03-2021 17:35:00 7.3 C 86 % 5.12 C
213 14-03-2021 17:40:00 6.9 C 87 % 4.89 C
214 14-03-2021 17:45:00 6.7 C 88 % 4.86 C
215 14-03-2021 17:50:00 6.7 C 89 % 5.02 C
216 14-03-2021 17:55:00 6.8 C 89 % 5.12 C
217 14-03-2021 18:00:00 6.7 C 90 % 5.18 C
218 14-03-2021 18:05:00 6.6 C 89 % 4.92 C
219 14-03-2021 18:10:00 6.4 C 89 % 4.72 C
220 14-03-2021 18:15:00 6.3 C 89 % 4.62 C
221 14-03-2021 18:20:00 6 C 89 % 4.33 C
222 14-03-2021 18:25:00 5.8 C 89 % 4.13 C
223 14-03-2021 18:30:00 5.6 C 90 % 4.09 C
224 14-03-2021 18:35:00 5.4 C 90 % 3.89 C
225 14-03-2021 18:40:00 5.3 C 90 % 3.8 C
Sensor: Nr:Datum:Temp:Feuchte:Taupunkt:
Aussen-T/F 226 14-03-2021 18:45:00 5.3 C 91 % 3.95 C
227 14-03-2021 18:50:00 5.2 C 91 % 3.85 C
228 14-03-2021 18:55:00 5.2 C 91 % 3.85 C
229 14-03-2021 19:00:00 5.1 C 91 % 3.76 C
230 14-03-2021 19:05:00 5 C 90 % 3.5 C
231 14-03-2021 19:10:00 4.9 C 90 % 3.4 C
232 14-03-2021 19:15:00 4.8 C 91 % 3.46 C
233 14-03-2021 19:20:00 4.7 C 90 % 3.2 C
234 14-03-2021 19:25:00 4.6 C 91 % 3.26 C
235 14-03-2021 19:30:00 4.4 C 91 % 3.06 C
236 14-03-2021 19:35:00 4.3 C 91 % 2.96 C
237 14-03-2021 19:40:00 4.3 C 91 % 2.96 C
238 14-03-2021 19:45:00 4.3 C 91 % 2.96 C
239 14-03-2021 19:50:00 4.2 C 92 % 3.02 C
240 14-03-2021 19:55:00 4.3 C 92 % 3.12 C
241 14-03-2021 20:00:00 4.2 C 92 % 3.02 C
242 14-03-2021 20:05:00 4.2 C 92 % 3.02 C
243 14-03-2021 20:10:00 4.2 C 92 % 3.02 C
244 14-03-2021 20:15:00 4.2 C 92 % 3.02 C
245 14-03-2021 20:20:00 4.1 C 92 % 2.92 C
246 14-03-2021 20:25:00 4.1 C 92 % 2.92 C
247 14-03-2021 20:30:00 4.1 C 92 % 2.92 C
248 14-03-2021 20:35:00 4.1 C 92 % 2.92 C
249 14-03-2021 20:40:00 4.2 C 93 % 3.17 C
250 14-03-2021 20:45:00 4.3 C 93 % 3.27 C
Sensor: Nr:Datum:Temp:Feuchte:Taupunkt:
Aussen-T/F 251 14-03-2021 20:50:00 4.3 C 93 % 3.27 C
252 14-03-2021 20:55:00 4.3 C 93 % 3.27 C
253 14-03-2021 21:00:00 4.3 C 93 % 3.27 C
254 14-03-2021 21:05:00 4.3 C 93 % 3.27 C
255 14-03-2021 21:10:00 4.3 C 93 % 3.27 C
256 14-03-2021 21:15:00 4.3 C 93 % 3.27 C
257 14-03-2021 21:20:00 4.3 C 93 % 3.27 C
258 14-03-2021 21:25:00 4.3 C 93 % 3.27 C
259 14-03-2021 21:30:00 4.2 C 93 % 3.17 C
260 14-03-2021 21:35:00 4.2 C 93 % 3.17 C
261 14-03-2021 21:40:00 4.3 C 93 % 3.27 C
262 14-03-2021 21:45:00 4.3 C 92 % 3.12 C
263 14-03-2021 21:50:00 4.4 C 92 % 3.22 C
264 14-03-2021 21:55:00 4.5 C 92 % 3.32 C
265 14-03-2021 22:00:00 4.5 C 92 % 3.32 C
266 14-03-2021 22:05:00 4.6 C 91 % 3.26 C
267 14-03-2021 22:10:00 4.6 C 91 % 3.26 C
268 14-03-2021 22:15:00 4.6 C 91 % 3.26 C
269 14-03-2021 22:20:00 4.7 C 91 % 3.36 C
270 14-03-2021 22:25:00 4.7 C 91 % 3.36 C
271 14-03-2021 22:30:00 4.7 C 91 % 3.36 C
272 14-03-2021 22:35:00 4.7 C 91 % 3.36 C
273 14-03-2021 22:40:00 4.7 C 91 % 3.36 C
274 14-03-2021 22:45:00 4.7 C 90 % 3.2 C
275 14-03-2021 22:50:00 4.7 C 90 % 3.2 C
Sensor: Nr:Datum:Temp:Feuchte:Taupunkt:
Aussen-T/F 276 14-03-2021 22:55:00 4.7 C 90 % 3.2 C
277 14-03-2021 23:00:00 4.7 C 90 % 3.2 C
278 14-03-2021 23:05:00 4.7 C 90 % 3.2 C
279 14-03-2021 23:10:00 4.7 C 90 % 3.2 C
280 14-03-2021 23:15:00 4.7 C 90 % 3.2 C
281 14-03-2021 23:20:00 4.8 C 89 % 3.14 C
282 14-03-2021 23:25:00 4.8 C 89 % 3.14 C
283 14-03-2021 23:30:00 4.8 C 89 % 3.14 C
284 14-03-2021 23:35:00 4.7 C 89 % 3.05 C
285 14-03-2021 23:40:00 4.7 C 89 % 3.05 C
286 14-03-2021 23:45:00 4.7 C 89 % 3.05 C
287 14-03-2021 23:50:00 4.6 C 89 % 2.95 C
288 14-03-2021 23:55:00 4.6 C 89 % 2.95 C

Legende:
   Min
   Max


Maximal/Minimal-Werte vom 14.03.2021 - 14.03.2021

Sensor Min Max Avg
Temp
(Aussen-T/F)
3.5 °C
14-03-2021  05:30:00
8.3 °C
14-03-2021  17:00:00
5.29 °C
Feuchte
(Aussen-T/F)
79 %
14-03-2021  12:50:00
93 %
14-03-2021  03:05:00
87.19 %
Taupunkt
(Aussen-T/F)
1.58 C
14-03-2021  06:50:00
6.4 C
14-03-2021  16:55:00
3.3 C

Die Daten stammen von einer Davis Vantage Pro 2 Wetter-Station und werden unter Linux mit der Software wview2wettercgi und aufbereitet. Alle Angaben erfolgen ohne Gewähr für ihre Vollständigkeit oder Richtigkeit.
Kontakt: Rainer Krienke krienke@uni-koblenz.de . Meine Webseiten an der Uni Koblenz oder privat.
Version: $Revision: 0.78 $